createdAt,value
2018-05-17T00:01:01.054Z,10.40
2018-05-17T00:03:27.218Z,10.40
2018-05-17T00:05:53.424Z,10.40
2018-05-17T00:08:19.581Z,10.30
2018-05-17T00:10:45.749Z,10.20
2018-05-17T00:13:12.664Z,10.20
2018-05-17T00:15:45.048Z,10.20
2018-05-17T00:18:11.226Z,10.20
2018-05-17T00:20:37.414Z,10.20
2018-05-17T00:23:04.324Z,10.10
2018-05-17T00:25:30.490Z,10.00
2018-05-17T00:27:56.662Z,10.00
2018-05-17T00:30:22.847Z,9.90
2018-05-17T00:32:49.034Z,9.80
2018-05-17T00:35:15.184Z,9.70
2018-05-17T00:37:41.373Z,9.50
2018-05-17T00:40:08.281Z,9.20
2018-05-17T00:42:34.446Z,9.20
2018-05-17T00:45:01.494Z,9.30
2018-05-17T00:47:28.409Z,9.30
2018-05-17T00:49:54.601Z,9.20
2018-05-17T00:52:20.823Z,9.30
2018-05-17T00:54:46.968Z,9.40
2018-05-17T00:57:13.149Z,9.40
2018-05-17T00:59:39.326Z,9.40
2018-05-17T01:02:05.573Z,9.10
2018-05-17T01:04:31.749Z,8.90
2018-05-17T01:06:57.917Z,8.80
2018-05-17T01:09:24.850Z,8.70
2018-05-17T01:11:51.018Z,8.60
2018-05-17T01:14:17.219Z,8.70
2018-05-17T01:16:44.126Z,8.60
2018-05-17T01:19:10.292Z,8.50
2018-05-17T01:21:36.464Z,8.50
2018-05-17T01:24:02.644Z,8.40
2018-05-17T01:26:28.853Z,8.30
2018-05-17T01:28:55.041Z,8.20
2018-05-17T01:31:21.950Z,8.10
2018-05-17T01:33:48.108Z,8.00
2018-05-17T01:36:15.022Z,8.20
2018-05-17T01:38:41.243Z,8.10
2018-05-17T01:41:07.404Z,8.20
2018-05-17T01:43:33.589Z,8.10
2018-05-17T01:45:59.757Z,8.10
2018-05-17T01:48:25.941Z,8.20
2018-05-17T01:50:52.860Z,8.50
2018-05-17T01:53:19.042Z,8.40
2018-05-17T01:55:45.245Z,8.60
2018-05-17T01:58:12.169Z,8.70
2018-05-17T02:00:38.354Z,8.70
2018-05-17T02:03:04.544Z,8.70
2018-05-17T02:05:30.779Z,8.60
2018-05-17T02:07:56.953Z,8.60
2018-05-17T02:10:23.132Z,8.50
2018-05-17T02:12:49.313Z,8.50
2018-05-17T02:15:15.493Z,8.40
2018-05-17T02:17:41.682Z,8.30
2018-05-17T02:20:07.853Z,8.20
2018-05-17T02:22:34.029Z,8.20
2018-05-17T02:25:00.959Z,8.10
2018-05-17T02:27:27.865Z,8.20
2018-05-17T02:29:54.066Z,8.10
2018-05-17T02:32:20.250Z,8.10
2018-05-17T02:34:46.428Z,8.10
2018-05-17T02:37:12.619Z,8.20
2018-05-17T02:39:38.793Z,8.20
2018-05-17T02:42:04.978Z,8.30
2018-05-17T02:44:31.165Z,8.20
2018-05-17T02:46:57.369Z,8.20
2018-05-17T02:49:24.285Z,8.10
2018-05-17T02:51:50.454Z,8.00
2018-05-17T02:54:17.377Z,8.20
2018-05-17T02:56:43.557Z,8.10
2018-05-17T02:59:09.761Z,8.20
2018-05-17T03:01:35.954Z,8.20
2018-05-17T03:04:02.145Z,8.20
2018-05-17T03:06:29.065Z,8.50
2018-05-17T03:08:55.246Z,8.40
2018-05-17T03:11:21.448Z,8.50
2018-05-17T03:13:48.365Z,8.30
2018-05-17T03:16:14.529Z,8.20
2018-05-17T03:18:41.449Z,8.00
2018-05-17T03:21:07.610Z,7.90
2018-05-17T03:23:34.561Z,8.20
2018-05-17T03:26:01.486Z,8.20
2018-05-17T03:28:27.663Z,8.10
2018-05-17T03:30:53.850Z,8.20
2018-05-17T03:33:20.782Z,8.20
2018-05-17T03:35:46.987Z,8.20
2018-05-17T03:38:13.165Z,8.20
2018-05-17T03:40:39.351Z,8.00
2018-05-17T03:43:05.542Z,8.00
2018-05-17T03:45:31.729Z,8.00
2018-05-17T03:47:57.926Z,8.00
2018-05-17T03:50:24.838Z,8.20
2018-05-17T03:52:51.021Z,8.10
2018-05-17T03:55:17.201Z,8.40
2018-05-17T03:57:43.365Z,8.40
2018-05-17T04:00:10.315Z,9.00
2018-05-17T04:02:49.648Z,9.00
2018-05-17T04:05:29.185Z,9.20
2018-05-17T04:07:56.172Z,9.50
2018-05-17T04:10:22.357Z,9.40
2018-05-17T04:12:48.535Z,9.90
2018-05-17T04:15:14.697Z,10.40
2018-05-17T04:17:40.877Z,10.90
2018-05-17T04:20:07.784Z,11.70
2018-05-17T04:22:33.957Z,11.70
2018-05-17T04:25:00.877Z,13.00
2018-05-17T04:27:27.070Z,12.90
2018-05-17T04:29:53.237Z,13.90
2018-05-17T04:32:19.399Z,14.40
2018-05-17T04:34:46.304Z,16.80
2018-05-17T04:37:12.474Z,16.80
2018-05-17T04:39:39.413Z,19.10
2018-05-17T04:42:06.333Z,20.20
2018-05-17T04:44:32.502Z,20.10
2018-05-17T04:46:59.431Z,19.20
2018-05-17T04:49:25.605Z,19.10
2018-05-17T04:51:51.945Z,19.90
2018-05-17T04:54:18.189Z,20.00
2018-05-17T04:56:44.375Z,19.20
2018-05-17T04:59:10.572Z,18.30
2018-05-17T05:01:36.730Z,17.30
2018-05-17T05:04:02.909Z,16.30
2018-05-17T05:06:29.089Z,15.40
2018-05-17T05:08:55.249Z,15.10
2018-05-17T05:11:22.165Z,14.70
2018-05-17T05:13:48.333Z,14.60
2018-05-17T05:16:15.270Z,13.40
2018-05-17T05:18:41.447Z,13.30
2018-05-17T05:21:07.617Z,12.90
2018-05-17T05:23:33.802Z,12.60
2018-05-17T05:25:59.973Z,12.40
2018-05-17T05:28:26.178Z,12.50
2018-05-17T05:30:52.350Z,12.30
2018-05-17T05:33:18.530Z,12.20
2018-05-17T05:35:44.701Z,12.40
2018-05-17T05:38:10.900Z,12.70
2018-05-17T05:40:37.062Z,13.10
2018-05-17T05:43:03.237Z,13.10
2018-05-17T05:45:30.157Z,13.50
2018-05-17T05:47:56.333Z,13.50
2018-05-17T05:50:22.507Z,13.60
2018-05-17T05:52:48.686Z,13.90
2018-05-17T05:55:15.617Z,14.40
2018-05-17T05:57:41.793Z,14.40
2018-05-17T06:00:08.624Z,14.30
2018-05-17T06:02:34.801Z,14.10
2018-05-17T06:05:00.977Z,14.30
2018-05-17T06:07:27.906Z,15.20
2018-05-17T06:09:54.069Z,15.10
2018-05-17T06:12:20.980Z,15.70
2018-05-17T06:14:47.174Z,15.60
2018-05-17T06:17:13.339Z,15.80
2018-05-17T06:19:39.505Z,15.50
2018-05-17T06:22:06.432Z,15.00
2018-05-17T06:24:32.609Z,15.00
2018-05-17T06:26:58.784Z,15.10
2018-05-17T06:29:24.966Z,15.30
2018-05-17T06:31:51.140Z,16.00
2018-05-17T06:34:17.317Z,16.70
2018-05-17T06:36:44.242Z,17.30
2018-05-17T06:39:11.189Z,17.50
2018-05-17T06:41:37.369Z,17.50
2018-05-17T06:44:03.578Z,17.80
2018-05-17T06:46:30.494Z,17.90
2018-05-17T06:48:56.683Z,17.80
2018-05-17T06:51:22.865Z,18.00
2018-05-17T06:53:49.042Z,17.90
2018-05-17T06:56:15.258Z,17.80
2018-05-17T06:58:42.161Z,18.00
2018-05-17T07:01:08.349Z,18.00
2018-05-17T07:03:34.540Z,18.20
2018-05-17T07:06:00.714Z,18.30
2018-05-17T07:08:27.678Z,18.30
2018-05-17T07:10:53.872Z,18.20
2018-05-17T07:13:20.038Z,18.60
2018-05-17T07:15:46.216Z,18.90
2018-05-17T07:18:12.505Z,19.10
2018-05-17T07:20:38.592Z,19.30
2018-05-17T07:23:04.757Z,19.40
2018-05-17T07:25:31.699Z,19.40
2018-05-17T07:27:58.628Z,19.50
2018-05-17T07:30:24.841Z,19.40
2018-05-17T07:32:51.018Z,19.80
2018-05-17T07:35:17.945Z,20.40
2018-05-17T07:37:44.132Z,20.30
2018-05-17T07:40:10.322Z,20.40
2018-05-17T07:42:37.245Z,20.90
2018-05-17T07:45:03.460Z,20.90
2018-05-17T07:47:29.643Z,21.10
2018-05-17T07:49:56.667Z,21.70
2018-05-17T07:52:22.852Z,21.60
2018-05-17T07:54:49.037Z,21.90
2018-05-17T07:57:15.239Z,22.10
2018-05-17T07:59:41.410Z,22.40
2018-05-17T08:02:08.337Z,22.80
2018-05-17T08:04:34.534Z,22.70
2018-05-17T08:07:00.705Z,23.10
2018-05-17T08:09:26.991Z,23.00
2018-05-17T08:11:53.169Z,23.10
2018-05-17T08:14:19.352Z,23.50
2018-05-17T08:16:45.537Z,23.80
2018-05-17T08:19:11.766Z,24.10
2018-05-17T08:21:37.956Z,24.10
2018-05-17T08:24:04.129Z,23.90
2018-05-17T08:26:30.338Z,23.80
2018-05-17T08:28:56.558Z,23.90
2018-05-17T08:31:22.745Z,23.80
2018-05-17T08:33:48.930Z,23.60
2018-05-17T08:36:15.253Z,22.80
2018-05-17T08:38:41.345Z,22.90
2018-05-17T08:41:07.581Z,23.30
2018-05-17T08:43:33.771Z,23.60
2018-05-17T08:45:59.944Z,23.60
2018-05-17T08:48:26.143Z,23.30
2018-05-17T08:50:52.338Z,23.00
2018-05-17T08:53:19.253Z,22.90
2018-05-17T08:55:45.450Z,22.90
2018-05-17T08:58:11.629Z,22.90
2018-05-17T09:00:38.749Z,23.00
2018-05-17T09:03:04.946Z,22.90
2018-05-17T09:05:31.114Z,23.20
2018-05-17T09:07:57.296Z,23.40
2018-05-17T09:10:24.221Z,23.70
2018-05-17T09:12:50.453Z,23.60
2018-05-17T09:15:16.631Z,23.70
2018-05-17T09:17:42.793Z,23.80
2018-05-17T09:20:09.069Z,24.20
2018-05-17T09:22:35.161Z,24.30
2018-05-17T09:25:01.369Z,24.50
2018-05-17T09:27:27.549Z,24.60
2018-05-17T09:29:53.734Z,24.60
2018-05-17T09:32:19.966Z,24.80
2018-05-17T09:34:46.179Z,25.10
2018-05-17T09:37:13.154Z,25.10
2018-05-17T09:39:39.370Z,25.00
2018-05-17T09:42:05.566Z,25.10
2018-05-17T09:44:31.758Z,25.00
2018-05-17T09:46:57.952Z,25.00
2018-05-17T09:49:24.887Z,25.30
2018-05-17T09:51:51.106Z,25.30
2018-05-17T09:54:17.285Z,25.20
2018-05-17T09:56:43.477Z,25.00
2018-05-17T09:59:09.660Z,25.00
2018-05-17T10:01:35.846Z,25.20
2018-05-17T10:04:02.043Z,25.40
2018-05-17T10:06:28.221Z,25.50
2018-05-17T10:08:54.420Z,25.60
2018-05-17T10:11:20.650Z,25.60
2018-05-17T10:13:46.828Z,25.60
2018-05-17T10:16:13.785Z,25.30
2018-05-17T10:18:39.966Z,25.20
2018-05-17T10:21:06.182Z,24.90
2018-05-17T10:23:32.382Z,24.80
2018-05-17T10:25:59.338Z,24.80
2018-05-17T10:28:26.283Z,24.80
2018-05-17T10:30:53.258Z,25.10
2018-05-17T10:33:19.482Z,25.10
2018-05-17T10:35:45.677Z,25.20
2018-05-17T10:38:11.857Z,25.40
2018-05-17T10:40:38.037Z,25.20
2018-05-17T10:43:04.226Z,25.20
2018-05-17T10:45:30.403Z,25.00
2018-05-17T10:47:56.581Z,25.00
2018-05-17T10:50:23.508Z,24.60
2018-05-17T10:52:49.713Z,24.50
2018-05-17T10:55:15.888Z,24.50
2018-05-17T10:57:42.081Z,24.40
2018-05-17T11:00:08.270Z,24.40
2018-05-17T11:02:34.452Z,24.40
2018-05-17T11:05:00.653Z,24.60
2018-05-17T11:07:26.849Z,24.70
2018-05-17T11:09:53.764Z,25.00
2018-05-17T11:12:20.043Z,25.00
2018-05-17T11:14:46.174Z,25.10
2018-05-17T11:17:12.410Z,25.30
2018-05-17T11:19:38.616Z,25.30
2018-05-17T11:22:05.559Z,25.30
2018-05-17T11:24:32.495Z,25.30
2018-05-17T11:26:59.443Z,25.30
2018-05-17T11:29:25.687Z,25.30
2018-05-17T11:31:52.617Z,25.50
2018-05-17T11:34:18.821Z,25.40
2018-05-17T11:36:45.019Z,25.50
2018-05-17T11:39:11.967Z,25.60
2018-05-17T11:41:38.909Z,25.30
2018-05-17T11:44:05.936Z,25.40
2018-05-17T11:46:32.778Z,25.40
2018-05-17T11:48:58.971Z,25.40
2018-05-17T11:51:25.146Z,25.50
2018-05-17T11:53:52.306Z,25.60
2018-05-17T11:56:18.501Z,25.60
2018-05-17T11:58:44.713Z,25.90
2018-05-17T12:01:11.669Z,25.90
2018-05-17T12:03:37.901Z,25.80
2018-05-17T12:06:04.136Z,25.90
2018-05-17T12:08:30.367Z,26.10
2018-05-17T12:10:56.585Z,26.30
2018-05-17T12:13:23.521Z,26.60
2018-05-17T12:15:49.733Z,26.60
2018-05-17T12:18:15.958Z,26.70
2018-05-17T12:20:42.243Z,26.50
2018-05-17T12:23:08.555Z,26.40
2018-05-17T12:25:35.443Z,25.90
2018-05-17T12:28:01.642Z,25.90
2018-05-17T12:30:27.809Z,25.10
2018-05-17T12:32:54.006Z,24.10
2018-05-17T12:35:20.934Z,22.60
2018-05-17T12:37:47.102Z,22.50
2018-05-17T12:40:14.046Z,18.30
2018-05-17T12:42:40.963Z,16.70
2018-05-17T12:45:07.179Z,16.60
2018-05-17T12:47:33.374Z,15.80
2018-05-17T12:49:59.532Z,15.50
2018-05-17T12:52:25.718Z,15.10
2018-05-17T12:54:52.771Z,14.50
2018-05-17T12:57:18.982Z,14.40
2018-05-17T12:59:45.161Z,14.30
2018-05-17T13:02:11.332Z,14.40
2018-05-17T13:04:37.532Z,14.40
2018-05-17T13:07:03.846Z,14.50
2018-05-17T13:09:29.911Z,14.70
2018-05-17T13:11:56.080Z,14.90
2018-05-17T13:14:22.280Z,15.10
2018-05-17T13:16:48.432Z,15.30
2018-05-17T13:19:14.597Z,15.50
2018-05-17T13:21:41.523Z,15.60
2018-05-17T13:24:07.686Z,15.60
2018-05-17T13:26:34.716Z,16.30
2018-05-17T13:29:00.871Z,16.20
2018-05-17T13:31:27.778Z,16.60
2018-05-17T13:33:54.700Z,16.80
2018-05-17T13:36:20.874Z,16.80
2018-05-17T13:38:47.087Z,17.00
2018-05-17T13:41:13.258Z,17.20
2018-05-17T13:43:40.170Z,17.60
2018-05-17T13:46:06.363Z,17.50
2018-05-17T13:48:32.545Z,17.80
2018-05-17T13:50:58.765Z,17.80
2018-05-17T13:53:24.958Z,17.70
2018-05-17T13:55:51.172Z,18.10
2018-05-17T13:58:18.123Z,18.90
2018-05-17T14:00:45.057Z,19.30
2018-05-17T14:03:11.261Z,19.30
2018-05-17T14:05:37.469Z,19.70
2018-05-17T14:08:03.712Z,20.00
2018-05-17T14:10:29.906Z,20.20
2018-05-17T14:12:56.857Z,20.20
2018-05-17T14:15:23.852Z,20.50
2018-05-17T14:17:50.059Z,20.50
2018-05-17T14:20:16.254Z,20.80
2018-05-17T14:22:42.471Z,21.20
2018-05-17T14:25:08.669Z,21.50
2018-05-17T14:27:34.886Z,21.30
2018-05-17T14:30:01.076Z,20.80
2018-05-17T14:32:27.272Z,20.10
2018-05-17T14:34:53.445Z,19.60
2018-05-17T14:37:19.613Z,18.90
2018-05-17T14:39:46.532Z,18.10
2018-05-17T14:42:12.696Z,18.10
2018-05-17T14:44:38.874Z,17.90
2018-05-17T14:47:05.064Z,17.70
2018-05-17T14:49:31.241Z,17.70
2018-05-17T14:51:57.419Z,17.70
2018-05-17T14:54:24.345Z,17.20
2018-05-17T14:56:50.521Z,17.10
2018-05-17T14:59:16.701Z,16.90
2018-05-17T15:01:42.865Z,16.30
2018-05-17T15:04:09.790Z,15.30
2018-05-17T15:06:35.998Z,15.10
2018-05-17T15:09:02.173Z,14.80
2018-05-17T15:11:29.097Z,14.20
2018-05-17T15:13:55.323Z,14.10
2018-05-17T15:16:21.488Z,14.00
2018-05-17T15:18:48.429Z,13.60
2018-05-17T15:21:14.597Z,13.50
2018-05-17T15:23:40.807Z,13.50
2018-05-17T15:26:07.729Z,13.50
2018-05-17T15:28:33.901Z,13.40
2018-05-17T15:31:00.093Z,13.60
2018-05-17T15:33:26.270Z,13.50
2018-05-17T15:35:52.440Z,13.50
2018-05-17T15:38:18.597Z,13.50
2018-05-17T15:40:44.783Z,13.50
2018-05-17T15:43:10.949Z,13.40
2018-05-17T15:45:37.126Z,13.40
2018-05-17T15:48:04.057Z,13.30
2018-05-17T16:14:54.272Z,13.80
2018-05-17T16:17:20.313Z,13.70
2018-05-17T16:19:46.516Z,13.70
2018-05-17T16:22:12.701Z,13.70
2018-05-17T16:24:38.869Z,13.80
2018-05-17T16:27:05.058Z,13.90
2018-05-17T16:29:31.220Z,13.70
2018-05-17T16:31:57.454Z,13.80
2018-05-17T16:34:23.618Z,13.90
2018-05-17T16:36:50.533Z,13.90
2018-05-17T16:39:16.721Z,13.80
2018-05-17T16:41:42.887Z,13.80
2018-05-17T16:44:09.065Z,13.70
2018-05-17T16:46:35.225Z,13.80
2018-05-17T16:49:01.396Z,13.80
2018-05-17T16:51:27.591Z,13.80
2018-05-17T16:53:53.778Z,13.90
2018-05-17T16:56:19.960Z,14.10
2018-05-17T16:58:46.188Z,14.10
2018-05-17T17:01:13.033Z,14.20
2018-05-17T17:03:39.223Z,14.20
2018-05-17T17:06:05.416Z,14.30
2018-05-17T17:08:31.590Z,14.20
2018-05-17T17:10:57.768Z,14.20
2018-05-17T17:13:23.938Z,14.20
2018-05-17T17:15:50.129Z,14.30
2018-05-17T17:18:16.323Z,14.40
2018-05-17T17:20:43.260Z,14.30
2018-05-17T17:23:09.449Z,14.30
2018-05-17T17:25:35.613Z,14.30
2018-05-17T17:28:01.778Z,14.20
2018-05-17T17:30:28.738Z,14.00
2018-05-17T17:32:55.733Z,13.90
2018-05-17T17:35:21.984Z,13.80
2018-05-17T17:37:48.897Z,13.70
2018-05-17T17:40:15.077Z,13.70
2018-05-17T17:42:41.261Z,13.70
2018-05-17T17:45:07.432Z,13.70
2018-05-17T17:47:34.639Z,13.70
2018-05-17T17:50:00.896Z,13.70
2018-05-17T17:52:27.014Z,13.80
2018-05-17T17:54:53.194Z,13.80
2018-05-17T17:57:19.389Z,13.80
2018-05-17T17:59:45.565Z,14.10
2018-05-17T18:02:11.745Z,14.20
2018-05-17T18:04:37.942Z,14.20
2018-05-17T18:07:04.114Z,14.20
2018-05-17T18:09:30.274Z,14.20
2018-05-17T18:11:56.465Z,14.20
2018-05-17T18:14:22.634Z,14.20
2018-05-17T18:16:49.677Z,14.10
2018-05-17T18:19:15.841Z,13.90
2018-05-17T18:21:42.003Z,14.00
2018-05-17T18:24:08.973Z,13.80
2018-05-17T18:26:35.878Z,13.60
2018-05-17T18:29:02.146Z,13.60
2018-05-17T18:31:29.105Z,13.40
2018-05-17T18:33:55.574Z,13.30
2018-05-17T18:36:22.502Z,13.40
2018-05-17T18:38:48.677Z,13.30
2018-05-17T18:41:14.917Z,13.40
2018-05-17T18:43:41.081Z,13.30
2018-05-17T18:46:07.257Z,13.10
2018-05-17T18:48:33.438Z,12.90
2018-05-17T18:51:00.409Z,12.40
2018-05-17T18:53:26.592Z,12.40
2018-05-17T18:55:52.805Z,12.30
2018-05-17T18:58:18.999Z,12.40
2018-05-17T19:00:45.173Z,12.30
2018-05-17T19:03:11.374Z,12.20
2018-05-17T19:05:37.537Z,12.10
2018-05-17T19:08:04.464Z,12.00
2018-05-17T19:10:30.633Z,11.90
2018-05-17T19:12:57.109Z,11.90
2018-05-17T19:15:24.915Z,11.70
2018-05-17T19:17:52.617Z,11.70
2018-05-17T19:20:18.809Z,11.60
2018-05-17T19:22:44.985Z,11.60
2018-05-17T19:25:11.165Z,11.50
2018-05-17T19:27:37.332Z,11.40
2018-05-17T19:30:03.515Z,11.30
2018-05-17T19:32:29.686Z,11.20
2018-05-17T19:34:56.066Z,11.30
2018-05-17T19:37:23.037Z,11.10
2018-05-17T19:39:49.166Z,11.00
2018-05-17T19:42:15.353Z,11.00
2018-05-17T19:44:41.531Z,11.00
2018-05-17T19:47:07.713Z,11.10
2018-05-17T19:49:33.890Z,11.00
2018-05-17T19:52:00.085Z,11.00
2018-05-17T19:54:26.265Z,11.10
2018-05-17T19:56:52.438Z,11.20
2018-05-17T19:59:19.404Z,11.30
2018-05-17T20:01:45.574Z,11.20
2018-05-17T20:04:11.739Z,11.40
2018-05-17T20:06:37.917Z,11.40
2018-05-17T20:09:04.834Z,11.30
2018-05-17T20:11:31.008Z,11.30
2018-05-17T20:13:57.935Z,11.40
2018-05-17T20:16:24.109Z,11.30
2018-05-17T20:18:50.320Z,11.40
2018-05-17T20:21:17.252Z,11.60
2018-05-17T20:23:44.172Z,11.60
2018-05-17T20:26:10.397Z,11.50
2018-05-17T20:28:36.552Z,11.60
2018-05-17T20:31:03.486Z,11.50
2018-05-17T20:33:29.689Z,11.40
2018-05-17T20:35:55.856Z,11.50
2018-05-17T20:38:22.076Z,11.50
2018-05-17T20:40:48.262Z,11.60
2018-05-17T20:43:15.176Z,11.50
2018-05-17T20:45:41.364Z,11.50
2018-05-17T20:48:07.533Z,11.50
2018-05-17T20:50:33.728Z,11.40
2018-05-17T20:52:59.897Z,11.40
2018-05-17T20:55:26.093Z,11.40
2018-05-17T20:57:52.378Z,11.30
2018-05-17T21:00:18.590Z,11.20
2018-05-17T21:02:44.770Z,11.00
2018-05-17T21:05:11.694Z,10.70
2018-05-17T21:07:37.906Z,10.60
2018-05-17T21:10:04.827Z,10.40
2018-05-17T21:12:30.996Z,10.30
2018-05-17T21:14:57.190Z,10.20
2018-05-17T21:17:23.369Z,9.90
2018-05-17T21:19:49.546Z,9.80
2018-05-17T21:22:15.749Z,10.10
2018-05-17T21:24:41.914Z,10.30
2018-05-17T21:27:08.150Z,10.30
2018-05-17T21:29:34.301Z,10.10
2018-05-17T21:32:00.464Z,10.00
2018-05-17T21:34:26.701Z,10.00
2018-05-17T21:36:52.878Z,10.00
2018-05-17T21:39:19.050Z,10.00
2018-05-17T21:41:45.269Z,10.00
2018-05-17T21:44:11.438Z,9.90
2018-05-17T21:46:38.413Z,10.00
2018-05-17T21:49:05.343Z,9.80
2018-05-17T21:51:31.551Z,9.80
2018-05-17T21:53:57.733Z,9.80
2018-05-17T21:56:24.653Z,9.60
2018-05-17T21:58:50.849Z,9.60
2018-05-17T22:01:17.043Z,9.60
2018-05-17T22:03:43.966Z,9.40
2018-05-17T22:06:10.252Z,9.30
2018-05-17T22:08:36.355Z,9.40
2018-05-17T22:11:03.281Z,9.50
2018-05-17T22:13:29.462Z,9.40
2018-05-17T22:15:55.664Z,9.60
2018-05-17T22:18:22.815Z,9.40
2018-05-17T22:20:49.822Z,9.30
2018-05-17T22:23:16.002Z,9.20
2018-05-17T22:25:42.929Z,9.10
2018-05-17T22:28:09.105Z,9.00
2018-05-17T22:30:35.297Z,8.90
2018-05-17T22:33:01.478Z,8.90
2018-05-17T22:35:27.653Z,8.80
2018-05-17T22:37:53.830Z,8.80
2018-05-17T22:40:20.001Z,8.70
2018-05-17T22:42:46.199Z,8.70
2018-05-17T22:45:12.377Z,8.70
2018-05-17T22:47:38.550Z,8.80
2018-05-17T22:50:05.475Z,8.80
2018-05-17T22:52:31.642Z,8.80
2018-05-17T22:54:57.842Z,8.90
2018-05-17T22:57:36.325Z,8.90
2018-05-17T23:00:02.529Z,8.90
2018-05-17T23:02:28.719Z,8.70
2018-05-17T23:04:54.897Z,8.60
2018-05-17T23:07:21.085Z,8.60
2018-05-17T23:09:47.267Z,8.70
2018-05-17T23:12:13.454Z,8.60
2018-05-17T23:14:39.674Z,8.60
2018-05-17T23:17:05.854Z,8.50
2018-05-17T23:19:32.017Z,8.50
2018-05-17T23:21:58.188Z,8.50
2018-05-17T23:24:25.109Z,8.50
2018-05-17T23:26:51.298Z,8.40
2018-05-17T23:29:17.486Z,8.50
2018-05-17T23:31:43.696Z,8.50
2018-05-17T23:34:09.861Z,8.50
2018-05-17T23:36:36.056Z,8.50
2018-05-17T23:39:02.311Z,8.40
2018-05-17T23:41:34.389Z,8.20
2018-05-17T23:44:00.605Z,8.10
2018-05-17T23:46:26.802Z,8.10
2018-05-17T23:48:53.091Z,8.10
2018-05-17T23:51:19.294Z,8.10
2018-05-17T23:53:45.477Z,8.10
2018-05-17T23:56:12.405Z,8.10
2018-05-17T23:58:38.584Z,8.10
